createdAt,value
2022-09-23T00:00:32.444Z,36.20
2022-09-23T00:03:00.958Z,37.70
2022-09-23T00:05:34.496Z,38.00
2022-09-23T00:08:18.224Z,36.90
2022-09-23T00:10:46.907Z,37.50
2022-09-23T00:13:22.824Z,38.10
2022-09-23T00:15:55.299Z,38.00
2022-09-23T00:18:33.595Z,38.20
2022-09-23T00:21:40.917Z,38.40
2022-09-23T00:25:01.264Z,39.00
2022-09-23T00:28:36.256Z,38.20
2022-09-23T00:31:35.424Z,38.20
2022-09-23T00:35:18.975Z,38.90
2022-09-23T00:38:31.659Z,39.00
2022-09-23T00:43:25.752Z,39.50
2022-09-23T00:55:29.140Z,41.20
2022-09-23T00:58:00.579Z,41.60
2022-09-23T01:00:28.983Z,41.70
2022-09-23T01:02:57.246Z,41.50
2022-09-23T01:05:25.583Z,41.80
2022-09-23T01:07:54.106Z,42.60
2022-09-23T01:10:23.436Z,43.10
2022-09-23T01:13:06.012Z,43.40
2022-09-23T01:15:41.024Z,43.20
2022-09-23T01:18:19.493Z,43.50
2022-09-23T01:20:59.620Z,43.70
2022-09-23T01:24:24.730Z,44.20
2022-09-23T01:27:16.888Z,43.70
2022-09-23T01:30:13.671Z,43.80
2022-09-23T01:33:01.562Z,43.50
2022-09-23T01:35:43.107Z,43.00
2022-09-23T01:38:22.281Z,43.10
2022-09-23T01:40:56.193Z,42.20
2022-09-23T01:43:32.438Z,42.70
2022-09-23T01:46:02.918Z,42.40
2022-09-23T01:48:37.399Z,43.20
2022-09-23T01:51:10.745Z,42.70
2022-09-23T01:53:44.632Z,42.70
2022-09-23T01:56:17.084Z,43.60
2022-09-23T01:58:52.232Z,45.10
2022-09-23T02:01:28.431Z,44.70
2022-09-23T02:04:04.362Z,45.70
2022-09-23T02:06:39.288Z,46.20
2022-09-23T02:09:13.438Z,46.20
2022-09-23T02:11:45.506Z,46.20
2022-09-23T02:14:19.638Z,46.20
2022-09-23T02:17:02.789Z,46.10
2022-09-23T02:19:42.575Z,46.10
2022-09-23T02:22:20.435Z,46.00
2022-09-23T02:24:50.622Z,45.90
2022-09-23T02:27:33.082Z,46.20
2022-09-23T02:30:14.238Z,46.60
2022-09-23T02:32:57.610Z,46.40
2022-09-23T02:35:33.047Z,46.60
2022-09-23T02:38:14.186Z,46.10
2022-09-23T02:40:52.360Z,45.40
2022-09-23T02:43:34.043Z,45.00
2022-09-23T02:46:03.186Z,44.80
2022-09-23T02:48:35.650Z,44.60
2022-09-23T02:51:06.320Z,45.80
2022-09-23T02:53:35.054Z,45.90
2022-09-23T02:56:05.022Z,46.00
2022-09-23T02:58:34.433Z,45.80
2022-09-23T03:01:19.478Z,45.80
2022-09-23T03:04:15.169Z,45.80
2022-09-23T03:07:03.836Z,45.60
2022-09-23T03:09:41.767Z,45.80
2022-09-23T03:12:22.570Z,45.50
2022-09-23T03:15:07.434Z,44.80
2022-09-23T03:18:07.460Z,44.70
2022-09-23T03:21:15.584Z,43.90
2022-09-23T03:24:24.842Z,43.70
2022-09-23T03:27:53.501Z,43.60
2022-09-23T03:34:01.863Z,44.70
2022-09-23T03:37:12.425Z,44.40
2022-09-23T03:40:19.719Z,43.80
2022-09-23T03:43:11.511Z,44.20
2022-09-23T03:45:48.767Z,45.00
2022-09-23T03:48:46.345Z,43.90
2022-09-23T03:51:23.903Z,44.40
2022-09-23T03:53:52.449Z,44.00
2022-09-23T03:56:22.503Z,45.10
2022-09-23T03:58:51.087Z,45.50
2022-09-23T04:01:32.583Z,45.50
2022-09-23T04:04:01.210Z,44.20
2022-09-23T04:06:29.515Z,45.10
2022-09-23T04:08:58.467Z,45.20
2022-09-23T04:11:28.082Z,46.10
2022-09-23T04:13:56.863Z,46.20
2022-09-23T04:16:25.456Z,46.50
2022-09-23T04:18:53.839Z,46.30
2022-09-23T04:21:22.203Z,46.20
2022-09-23T04:23:50.454Z,45.70
2022-09-23T04:26:21.526Z,45.30
2022-09-23T04:28:51.127Z,46.00
2022-09-23T04:31:19.433Z,46.40
2022-09-23T04:33:47.562Z,45.50
2022-09-23T04:36:16.068Z,45.30
2022-09-23T04:38:44.951Z,45.30
2022-09-23T04:41:13.666Z,45.40
2022-09-23T04:43:42.476Z,45.30
2022-09-23T04:46:13.762Z,45.40
2022-09-23T04:48:42.994Z,45.40
2022-09-23T04:51:13.528Z,45.30
2022-09-23T04:53:44.642Z,45.40
2022-09-23T04:56:15.078Z,46.00
2022-09-23T04:58:43.866Z,45.20
2022-09-23T05:01:16.806Z,45.30
2022-09-23T05:03:46.347Z,45.20
2022-09-23T05:06:15.711Z,45.30
2022-09-23T05:08:48.799Z,45.10
2022-09-23T05:11:17.982Z,45.70
2022-09-23T05:13:46.456Z,45.10
2022-09-23T05:16:16.517Z,45.50
2022-09-23T05:18:46.422Z,45.10
2022-09-23T05:21:17.214Z,45.30
2022-09-23T05:23:49.272Z,45.30
2022-09-23T05:26:17.639Z,46.40
2022-09-23T05:28:45.983Z,46.60
2022-09-23T05:31:19.913Z,46.30
2022-09-23T05:33:51.907Z,46.90
2022-09-23T05:36:21.233Z,47.70
2022-09-23T05:38:50.958Z,47.70
2022-09-23T05:41:22.829Z,48.10
2022-09-23T05:43:51.662Z,48.50
2022-09-23T05:46:23.320Z,49.50
2022-09-23T05:48:52.539Z,50.40
2022-09-23T05:51:25.469Z,50.50
2022-09-23T05:53:58.448Z,50.80
2022-09-23T05:56:28.759Z,50.90
2022-09-23T05:58:58.747Z,51.40
2022-09-23T06:01:32.344Z,51.30
2022-09-23T06:04:02.496Z,52.20
2022-09-23T06:06:32.774Z,53.40
2022-09-23T06:09:01.783Z,54.60
2022-09-23T06:11:32.136Z,55.30
2022-09-23T06:14:02.859Z,55.10
2022-09-23T06:16:34.892Z,55.70
2022-09-23T06:19:06.598Z,55.80
2022-09-23T06:21:36.959Z,55.50
2022-09-23T06:24:06.385Z,55.50
2022-09-23T06:26:35.591Z,55.70
2022-09-23T06:29:06.414Z,55.50
2022-09-23T06:31:36.224Z,54.90
2022-09-23T06:34:11.968Z,56.10
2022-09-23T06:36:44.347Z,54.20
2022-09-23T06:39:16.014Z,52.20
2022-09-23T06:41:45.452Z,50.90
2022-09-23T06:44:14.397Z,49.20
2022-09-23T06:46:44.643Z,49.30
2022-09-23T06:49:13.538Z,48.50
2022-09-23T06:51:42.303Z,47.60
2022-09-23T06:54:11.312Z,47.70
2022-09-23T06:56:40.117Z,47.20
2022-09-23T06:59:10.713Z,48.00
2022-09-23T07:01:39.330Z,46.60
2022-09-23T07:04:10.205Z,46.60
2022-09-23T07:06:38.431Z,45.80
2022-09-23T07:09:08.190Z,45.90
2022-09-23T07:11:37.098Z,46.00
2022-09-23T07:14:08.214Z,45.70
2022-09-23T07:16:36.773Z,45.80
2022-09-23T07:19:05.241Z,45.70
2022-09-23T07:21:35.088Z,45.90
2022-09-23T07:24:03.832Z,45.60
2022-09-23T07:26:34.064Z,45.00
2022-09-23T07:29:08.155Z,44.10
2022-09-23T07:31:40.245Z,44.30
2022-09-23T07:34:12.891Z,44.40
2022-09-23T07:36:42.894Z,42.80
2022-09-23T07:39:13.332Z,42.70
2022-09-23T07:41:44.698Z,40.70
2022-09-23T07:44:13.681Z,40.80
2022-09-23T07:46:42.143Z,39.60
2022-09-23T07:49:10.520Z,40.60
2022-09-23T07:51:40.996Z,39.70
2022-09-23T07:54:15.893Z,41.30
2022-09-23T07:56:44.632Z,42.10
2022-09-23T07:59:18.389Z,41.10
2022-09-23T08:01:49.104Z,42.60
2022-09-23T08:04:19.848Z,40.30
2022-09-23T08:06:50.160Z,40.20
2022-09-23T08:09:23.290Z,39.60
2022-09-23T08:11:54.921Z,39.70
2022-09-23T08:14:26.398Z,37.90
2022-09-23T08:16:54.780Z,37.90
2022-09-23T08:19:23.013Z,38.00
2022-09-23T08:21:52.202Z,38.00
2022-09-23T08:24:24.179Z,37.90
2022-09-23T08:26:54.034Z,37.90
2022-09-23T08:29:23.936Z,38.00
2022-09-23T08:31:52.624Z,37.50
2022-09-23T08:34:22.748Z,38.10
2022-09-23T08:36:52.271Z,39.10
2022-09-23T08:39:23.062Z,38.50
2022-09-23T08:42:07.097Z,39.70
2022-09-23T08:44:46.993Z,39.30
2022-09-23T08:47:20.437Z,39.40
2022-09-23T08:49:56.779Z,37.00
2022-09-23T08:52:33.841Z,37.70
2022-09-23T08:55:06.109Z,38.50
2022-09-23T08:57:43.375Z,38.00
2022-09-23T09:00:17.463Z,37.20
2022-09-23T09:02:45.960Z,37.10
2022-09-23T09:05:24.538Z,37.90
2022-09-23T09:07:53.732Z,37.20
2022-09-23T09:10:28.272Z,38.80
2022-09-23T09:13:04.516Z,37.90
2022-09-23T09:15:35.543Z,35.40
2022-09-23T09:18:07.864Z,36.10
2022-09-23T09:20:57.328Z,35.90
2022-09-23T09:23:32.915Z,35.00
2022-09-23T09:26:04.716Z,33.40
2022-09-23T09:28:39.913Z,33.20
2022-09-23T09:31:24.186Z,34.70
2022-09-23T09:33:58.072Z,34.30
2022-09-23T09:36:36.584Z,34.30
2022-09-23T09:39:07.610Z,33.50
2022-09-23T09:41:41.895Z,33.00
2022-09-23T09:44:24.405Z,32.90
2022-09-23T09:47:01.460Z,33.30
2022-09-23T09:49:40.494Z,31.90
2022-09-23T09:52:22.601Z,31.40
2022-09-23T09:54:51.637Z,31.20
2022-09-23T09:57:35.131Z,30.30
2022-09-23T10:00:33.503Z,30.30
2022-09-23T10:03:05.210Z,32.90
2022-09-23T10:05:39.435Z,31.40
2022-09-23T10:08:24.722Z,29.90
2022-09-23T10:10:55.007Z,28.70
2022-09-23T10:13:26.369Z,29.90
2022-09-23T10:15:56.071Z,29.70
2022-09-23T10:18:30.224Z,29.90
2022-09-23T10:21:08.440Z,29.70
2022-09-23T10:23:41.376Z,31.60
2022-09-23T10:26:10.353Z,30.90
2022-09-23T10:28:47.660Z,30.40
2022-09-23T10:31:24.527Z,33.10
2022-09-23T10:33:54.821Z,30.80
2022-09-23T10:36:23.186Z,28.50
2022-09-23T10:38:56.284Z,28.60
2022-09-23T10:41:50.266Z,29.60
2022-09-23T10:45:00.539Z,28.50
2022-09-23T10:47:37.264Z,29.40
2022-09-23T10:50:15.604Z,29.00
2022-09-23T10:52:58.010Z,29.20
2022-09-23T10:55:41.678Z,28.80
2022-09-23T10:58:24.248Z,28.40
2022-09-23T11:01:06.551Z,27.90
2022-09-23T11:04:01.356Z,29.00
2022-09-23T11:06:42.176Z,29.70
2022-09-23T11:09:24.143Z,28.20
2022-09-23T11:12:06.935Z,27.40
2022-09-23T11:14:51.511Z,27.40
2022-09-23T11:17:45.794Z,27.20
2022-09-23T11:20:36.646Z,27.90
2022-09-23T11:23:35.269Z,27.80
2022-09-23T11:26:16.376Z,26.60
2022-09-23T11:29:42.602Z,27.00
2022-09-23T11:32:28.446Z,27.00
2022-09-23T11:35:12.644Z,27.40
2022-09-23T11:37:44.316Z,27.40
2022-09-23T11:40:19.320Z,26.60
2022-09-23T11:42:54.812Z,26.90
2022-09-23T11:45:30.049Z,26.20
2022-09-23T11:48:04.026Z,27.80
2022-09-23T11:50:39.863Z,27.10
2022-09-23T11:53:17.499Z,27.30
2022-09-23T11:55:57.809Z,25.40
2022-09-23T11:58:30.725Z,25.40
2022-09-23T12:01:07.343Z,26.10
2022-09-23T12:03:50.057Z,26.30
2022-09-23T12:06:27.040Z,25.40
2022-09-23T12:09:01.572Z,25.30
2022-09-23T12:11:37.974Z,25.40
2022-09-23T12:14:17.151Z,24.80
2022-09-23T12:17:05.283Z,25.70
2022-09-23T12:20:09.330Z,25.90
2022-09-23T12:22:50.917Z,24.10
2022-09-23T12:25:38.671Z,23.70
2022-09-23T12:28:13.671Z,24.30
2022-09-23T12:30:43.746Z,23.20
2022-09-23T12:33:24.765Z,23.90
2022-09-23T12:35:57.801Z,23.90
2022-09-23T12:38:38.700Z,25.70
2022-09-23T12:41:25.663Z,23.70
2022-09-23T12:43:56.447Z,22.90
2022-09-23T12:46:32.382Z,22.70
2022-09-23T12:49:05.134Z,23.20
2022-09-23T12:52:05.102Z,22.00
2022-09-23T12:54:46.121Z,21.70
2022-09-23T12:57:36.463Z,21.40
2022-09-23T13:00:25.094Z,21.90
2022-09-23T13:03:16.724Z,22.80
2022-09-23T13:06:09.959Z,22.60
2022-09-23T13:08:47.656Z,22.60
2022-09-23T13:11:24.388Z,23.20
2022-09-23T13:13:56.552Z,23.80
2022-09-23T13:16:33.002Z,23.60
2022-09-23T13:19:03.524Z,23.20
2022-09-23T13:22:08.349Z,22.50
2022-09-23T13:24:48.581Z,22.40
2022-09-23T13:27:26.853Z,22.20
2022-09-23T13:30:08.028Z,21.60
2022-09-23T13:32:52.790Z,22.70
2022-09-23T13:35:32.148Z,23.10
2022-09-23T13:38:11.483Z,23.80
2022-09-23T13:43:36.530Z,24.30
2022-09-23T13:46:17.681Z,24.40
2022-09-23T13:48:49.399Z,24.60
2022-09-23T13:51:24.743Z,25.30
2022-09-23T13:53:56.194Z,25.60
2022-09-23T13:56:30.681Z,23.30
2022-09-23T13:59:35.451Z,25.00
2022-09-23T14:02:28.775Z,24.60
2022-09-23T14:05:18.907Z,24.50
2022-09-23T14:07:50.746Z,24.10
2022-09-23T14:10:34.003Z,23.00
2022-09-23T14:13:07.010Z,22.80
2022-09-23T14:15:41.165Z,22.50
2022-09-23T14:18:19.004Z,23.00
2022-09-23T14:20:56.145Z,23.80
2022-09-23T14:23:34.671Z,24.30
2022-09-23T14:26:06.905Z,23.40
2022-09-23T14:28:39.104Z,24.50
2022-09-23T14:31:16.605Z,24.70
2022-09-23T14:33:52.477Z,23.30
2022-09-23T14:36:46.367Z,24.10
2022-09-23T14:39:21.963Z,23.90
2022-09-23T14:42:00.368Z,23.90
2022-09-23T14:44:47.631Z,24.40
2022-09-23T14:47:41.335Z,24.10
2022-09-23T14:50:44.869Z,24.50
2022-09-23T14:53:50.270Z,25.50
2022-09-23T14:56:27.870Z,23.60
2022-09-23T14:59:00.842Z,25.00
2022-09-23T15:01:37.541Z,24.60
2022-09-23T15:04:22.204Z,26.00
2022-09-23T15:07:10.642Z,24.30
2022-09-23T15:09:56.611Z,23.50
2022-09-23T15:12:31.542Z,23.00
2022-09-23T15:15:06.722Z,25.00
2022-09-23T15:17:52.197Z,25.20
2022-09-23T15:20:25.565Z,24.50
2022-09-23T15:23:13.927Z,24.40
2022-09-23T15:26:04.905Z,24.50
2022-09-23T15:28:40.549Z,25.30
2022-09-23T15:31:30.382Z,25.00
2022-09-23T15:34:02.827Z,25.10
2022-09-23T15:36:47.121Z,25.70
2022-09-23T15:39:35.731Z,25.70
2022-09-23T15:42:12.168Z,25.00
2022-09-23T15:45:02.476Z,25.70
2022-09-23T15:47:38.044Z,25.70
2022-09-23T15:50:51.091Z,25.00
2022-09-23T15:53:49.517Z,25.90
2022-09-23T15:56:29.750Z,25.20
2022-09-23T15:59:04.515Z,27.40
2022-09-23T16:01:46.118Z,27.60
2022-09-23T16:04:31.574Z,28.50
2022-09-23T16:07:22.437Z,29.00
2022-09-23T16:09:59.086Z,29.00
2022-09-23T16:12:46.399Z,30.00
2022-09-23T16:15:27.879Z,29.40
2022-09-23T16:18:10.362Z,31.10
2022-09-23T16:21:03.479Z,31.30
2022-09-23T16:23:48.459Z,31.80
2022-09-23T16:26:41.507Z,32.00
2022-09-23T16:29:21.353Z,31.40
2022-09-23T16:31:53.612Z,33.90
2022-09-23T16:34:37.496Z,34.00
2022-09-23T16:37:32.962Z,33.10
2022-09-23T16:40:11.877Z,32.00
2022-09-23T16:43:10.745Z,32.50
2022-09-23T16:45:46.555Z,33.50
2022-09-23T16:48:23.015Z,34.60
2022-09-23T16:50:59.048Z,34.90
2022-09-23T16:53:34.979Z,35.40
2022-09-23T16:56:09.955Z,35.70
2022-09-23T16:58:49.750Z,35.30
2022-09-23T17:01:45.777Z,36.20
2022-09-23T17:04:20.788Z,37.10
2022-09-23T17:06:57.491Z,37.70
2022-09-23T17:09:31.488Z,37.80
2022-09-23T17:12:10.914Z,37.10
2022-09-23T17:14:44.082Z,37.20
2022-09-23T17:17:13.474Z,38.50
2022-09-23T17:19:47.531Z,38.80
2022-09-23T17:22:34.291Z,39.30
2022-09-23T17:25:11.518Z,40.00
2022-09-23T17:27:40.537Z,40.10
2022-09-23T17:30:14.302Z,41.10
2022-09-23T17:32:42.625Z,40.80
2022-09-23T17:35:14.951Z,41.20
2022-09-23T17:37:44.031Z,41.90
2022-09-23T17:40:19.373Z,40.70
2022-09-23T17:42:51.542Z,40.60
2022-09-23T17:45:25.333Z,41.00
2022-09-23T17:47:57.446Z,42.60
2022-09-23T17:50:31.514Z,42.80
2022-09-23T17:53:03.017Z,43.70
2022-09-23T17:55:32.019Z,43.70
2022-09-23T17:58:07.380Z,44.10
2022-09-23T18:00:50.714Z,44.50
2022-09-23T18:03:26.169Z,44.70
2022-09-23T18:06:12.113Z,44.80
2022-09-23T18:08:42.394Z,45.20
2022-09-23T18:11:20.908Z,45.90
2022-09-23T18:13:53.140Z,46.20
2022-09-23T18:16:28.035Z,46.30
2022-09-23T18:19:01.353Z,46.30
2022-09-23T18:21:33.432Z,46.30
2022-09-23T18:24:34.100Z,46.50
2022-09-23T18:27:10.267Z,46.30
2022-09-23T18:29:38.800Z,46.40
2022-09-23T18:32:13.900Z,46.30
2022-09-23T18:34:44.412Z,46.30
2022-09-23T18:37:16.130Z,46.80
2022-09-23T18:39:52.800Z,47.50
2022-09-23T18:42:22.047Z,47.80
2022-09-23T18:44:54.371Z,47.90
2022-09-23T18:47:43.221Z,48.00
2022-09-23T18:50:32.023Z,48.70
2022-09-23T18:53:02.733Z,49.20
2022-09-23T18:55:35.106Z,49.90
2022-09-23T18:58:04.955Z,51.50
2022-09-23T19:00:34.227Z,50.80
2022-09-23T19:03:10.344Z,51.20
2022-09-23T19:05:42.372Z,51.30
2022-09-23T19:08:13.941Z,51.50
2022-09-23T19:10:42.708Z,51.60
2022-09-23T19:13:13.535Z,51.50
2022-09-23T19:15:41.922Z,50.80
2022-09-23T19:18:12.177Z,50.70
2022-09-23T19:20:54.429Z,49.80
2022-09-23T19:23:24.059Z,48.70
2022-09-23T19:25:53.086Z,48.40
2022-09-23T19:28:22.577Z,49.00
2022-09-23T19:31:00.757Z,49.10
2022-09-23T19:33:35.058Z,49.10
2022-09-23T19:36:16.793Z,49.10
2022-09-23T19:38:50.444Z,49.30
2022-09-23T19:41:22.403Z,49.20
2022-09-23T19:43:54.067Z,49.70
2022-09-23T19:46:24.580Z,50.30
2022-09-23T19:48:55.415Z,51.20
2022-09-23T19:51:28.565Z,50.90
2022-09-23T19:54:10.078Z,50.60
2022-09-23T19:56:41.220Z,50.50
2022-09-23T19:59:13.243Z,51.00
2022-09-23T20:01:51.221Z,50.60
2022-09-23T20:04:24.577Z,49.50
2022-09-23T20:06:53.594Z,50.00
2022-09-23T20:09:22.416Z,50.90
2022-09-23T20:11:51.201Z,51.10
2022-09-23T20:14:24.780Z,50.70
2022-09-23T20:16:55.736Z,50.80
2022-09-23T20:19:26.410Z,50.80
2022-09-23T20:22:17.988Z,51.50
2022-09-23T20:24:52.114Z,52.70
2022-09-23T20:27:26.213Z,52.70
2022-09-23T20:30:01.504Z,52.60
2022-09-23T20:32:48.773Z,53.00
2022-09-23T20:35:22.622Z,52.80
2022-09-23T20:37:53.638Z,52.80
2022-09-23T20:40:23.222Z,52.90
2022-09-23T20:43:06.439Z,53.00
2022-09-23T20:45:37.932Z,53.30
2022-09-23T20:48:11.731Z,53.80
2022-09-23T20:50:44.624Z,54.40
2022-09-23T20:53:13.693Z,54.10
2022-09-23T20:55:53.155Z,53.70
2022-09-23T20:58:32.976Z,53.60
2022-09-23T21:01:05.013Z,53.40
2022-09-23T21:03:35.267Z,52.60
2022-09-23T21:06:16.957Z,51.10
2022-09-23T21:08:59.155Z,50.70
2022-09-23T21:11:37.167Z,50.40
2022-09-23T21:14:08.754Z,50.80
2022-09-23T21:16:47.898Z,51.70
2022-09-23T21:19:20.161Z,52.20
2022-09-23T21:21:51.649Z,52.50
2022-09-23T21:24:53.612Z,53.10
2022-09-23T21:27:19.811Z,53.50
2022-09-23T21:29:52.146Z,53.50
2022-09-23T21:32:22.984Z,52.20
2022-09-23T21:34:57.067Z,51.60
2022-09-23T21:37:35.370Z,51.70
2022-09-23T21:40:21.746Z,52.20
2022-09-23T21:42:58.087Z,52.50
2022-09-23T21:45:28.594Z,53.50
2022-09-23T21:48:02.713Z,54.00
2022-09-23T21:50:39.569Z,54.40
2022-09-23T21:53:21.554Z,54.70
2022-09-23T21:55:56.587Z,55.10
2022-09-23T21:58:34.944Z,54.40
2022-09-23T22:01:11.674Z,54.10
2022-09-23T22:03:46.984Z,53.60
2022-09-23T22:06:24.607Z,53.50
2022-09-23T22:09:18.606Z,53.30
2022-09-23T22:12:06.867Z,53.50
2022-09-23T22:14:59.250Z,53.50
2022-09-23T22:17:34.733Z,53.60
2022-09-23T22:20:17.183Z,53.90
2022-09-23T22:22:49.795Z,54.00
2022-09-23T22:25:20.616Z,54.20
2022-09-23T22:28:12.277Z,54.40
2022-09-23T22:31:11.939Z,54.10
2022-09-23T22:33:41.144Z,54.40
2022-09-23T22:36:13.647Z,54.80
2022-09-23T22:38:59.043Z,55.50
2022-09-23T22:41:45.561Z,55.50
2022-09-23T22:44:21.453Z,54.80
2022-09-23T22:46:58.842Z,53.90
2022-09-23T22:49:33.125Z,54.00
2022-09-23T22:52:17.781Z,55.10
2022-09-23T22:54:53.029Z,54.80
2022-09-23T22:57:29.988Z,55.50
2022-09-23T23:00:02.141Z,56.20
2022-09-23T23:02:44.124Z,55.70
2022-09-23T23:05:16.110Z,55.70
2022-09-23T23:07:55.499Z,56.20
2022-09-23T23:10:27.691Z,55.80
2022-09-23T23:13:04.277Z,55.80
2022-09-23T23:15:35.230Z,55.60
2022-09-23T23:18:09.631Z,56.30
2022-09-23T23:20:38.997Z,56.70
2022-09-23T23:23:14.078Z,56.80
2022-09-23T23:25:43.032Z,56.80
2022-09-23T23:28:20.305Z,56.60
2022-09-23T23:31:01.159Z,56.70
2022-09-23T23:33:32.743Z,57.00
2022-09-23T23:36:05.867Z,56.90
2022-09-23T23:38:47.720Z,57.30
2022-09-23T23:41:20.521Z,57.50
2022-09-23T23:43:56.865Z,56.90
2022-09-23T23:46:27.822Z,56.10
2022-09-23T23:49:02.026Z,56.30
2022-09-23T23:51:33.614Z,56.20
2022-09-23T23:54:05.565Z,55.80
2022-09-23T23:56:37.260Z,56.10
2022-09-23T23:59:10.015Z,56.10
